Terminal Aerodrome Forecast
Issued by NWS Wichita, KS

Home | Current Version | Previous Version | Text Only | Print | Product List | Glossary Off
Versions: 1 2 3 4 5 6 7 8 9 10 11 12 13 14 15 16 17 18 19 20 21 22

000
FTUS43 KICT 212000 AAA
TAFICT
TAF AMD
KICT 212039Z 2121/2218 35015G23KT P6SM SCT050
     FM212230 36014KT P6SM -SHRA SCT050CB OVC100
     FM220030 01008KT P6SM SKC
     FM221500 12009KT P6SM SKC=

USA.gov is the U.S. government's official web portal to all federal, state and local government web resources and services.